createdAt,value
2022-08-17T00:00:57.583Z,30.92
2022-08-17T00:02:01.478Z,30.90
2022-08-17T00:03:14.583Z,30.89
2022-08-17T00:04:19.100Z,30.87
2022-08-17T00:05:22.008Z,30.87
2022-08-17T00:06:27.811Z,30.86
2022-08-17T00:07:29.404Z,30.86
2022-08-17T00:08:34.526Z,30.87
2022-08-17T00:09:36.109Z,30.84
2022-08-17T00:10:38.595Z,30.84
2022-08-17T00:11:42.760Z,30.84
2022-08-17T00:13:14.422Z,30.83
2022-08-17T00:14:19.800Z,30.85
2022-08-17T00:15:22.785Z,30.87
2022-08-17T00:16:55.568Z,30.85
2022-08-17T00:17:52.262Z,30.87
2022-08-17T00:19:06.939Z,30.85
2022-08-17T00:20:12.186Z,30.84
2022-08-17T00:21:15.126Z,30.85
2022-08-17T00:22:34.903Z,30.82
2022-08-17T00:23:44.361Z,30.83
2022-08-17T00:24:50.617Z,30.85
2022-08-17T00:25:52.790Z,30.83
2022-08-17T00:26:54.415Z,30.80
2022-08-17T00:27:56.410Z,30.81
2022-08-17T00:29:00.054Z,30.82
2022-08-17T00:30:01.782Z,30.81
2022-08-17T00:31:03.836Z,30.80
2022-08-17T00:33:23.256Z,30.80
2022-08-17T00:33:31.959Z,30.77
2022-08-17T00:34:33.555Z,30.78
2022-08-17T00:35:35.351Z,30.78
2022-08-17T00:36:37.372Z,30.79
2022-08-17T00:37:39.315Z,30.75
2022-08-17T00:38:41.043Z,30.74
2022-08-17T00:39:42.677Z,30.73
2022-08-17T00:40:52.169Z,30.70
2022-08-17T00:41:57.567Z,30.65
2022-08-17T00:43:14.227Z,30.64
2022-08-17T00:44:15.889Z,30.69
2022-08-17T00:45:18.416Z,30.71
2022-08-17T00:46:24.060Z,30.69
2022-08-17T00:47:26.505Z,30.69
2022-08-17T00:48:30.736Z,30.68
2022-08-17T00:49:32.526Z,30.70
2022-08-17T00:50:35.433Z,30.72
2022-08-17T00:51:54.818Z,30.69
2022-08-17T00:52:57.761Z,30.71
2022-08-17T00:54:16.930Z,30.64
2022-08-17T00:55:18.985Z,30.66
2022-08-17T00:56:28.512Z,30.66
2022-08-17T00:57:34.691Z,30.67
2022-08-17T00:58:37.402Z,30.67
2022-08-17T00:59:43.996Z,30.67
2022-08-17T01:00:47.818Z,30.66
2022-08-17T01:01:50.769Z,30.66
2022-08-17T01:02:58.127Z,30.63
2022-08-17T01:04:01.460Z,30.65
2022-08-17T01:05:03.388Z,30.62
2022-08-17T01:06:08.385Z,30.63
2022-08-17T01:07:12.137Z,30.65
2022-08-17T01:08:17.911Z,30.59
2022-08-17T01:09:20.641Z,30.61
2022-08-17T01:10:58.766Z,30.56
2022-08-17T01:11:54.717Z,30.62
2022-08-17T01:12:56.859Z,30.61
2022-08-17T01:13:58.868Z,30.62
2022-08-17T01:15:00.485Z,30.61
2022-08-17T01:16:07.615Z,30.54
2022-08-17T01:17:09.770Z,30.54
2022-08-17T01:18:13.580Z,30.52
2022-08-17T01:19:20.291Z,30.50
2022-08-17T01:20:22.186Z,30.55
2022-08-17T01:22:05.602Z,30.52
2022-08-17T01:23:07.170Z,30.60
2022-08-17T01:24:08.874Z,30.56
2022-08-17T01:25:12.771Z,30.53
2022-08-17T01:26:14.489Z,30.51
2022-08-17T01:27:18.484Z,30.53
2022-08-17T01:28:52.637Z,30.54
2022-08-17T01:29:49.396Z,30.59
2022-08-17T01:30:57.755Z,30.61
2022-08-17T01:32:04.474Z,30.60
2022-08-17T01:33:06.151Z,30.61
2022-08-17T01:34:11.120Z,30.60
2022-08-17T01:35:13.460Z,30.58
2022-08-17T01:36:15.104Z,30.57
2022-08-17T01:37:16.990Z,30.57
2022-08-17T01:38:19.812Z,30.60
2022-08-17T01:39:28.672Z,30.60
2022-08-17T01:40:35.601Z,30.54
2022-08-17T01:41:38.238Z,30.60
2022-08-17T01:42:48.751Z,30.58
2022-08-17T01:44:09.291Z,30.54
2022-08-17T01:45:23.247Z,30.54
2022-08-17T01:46:28.680Z,30.60
2022-08-17T01:47:30.402Z,30.61
2022-08-17T01:48:35.375Z,30.58
2022-08-17T01:49:37.025Z,30.60
2022-08-17T01:50:40.910Z,30.61
2022-08-17T01:51:42.512Z,30.58
2022-08-17T01:52:45.881Z,30.58
2022-08-17T01:53:54.459Z,30.53
2022-08-17T01:54:56.647Z,30.57
2022-08-17T01:56:07.888Z,30.49
2022-08-17T01:57:10.842Z,30.52
2022-08-17T01:58:13.005Z,30.53
2022-08-17T01:59:15.879Z,30.53
2022-08-17T02:00:18.303Z,30.52
2022-08-17T02:01:23.124Z,30.52
2022-08-17T02:02:30.504Z,30.53
2022-08-17T02:03:34.577Z,30.54
2022-08-17T02:04:36.718Z,30.54
2022-08-17T02:05:39.817Z,30.53
2022-08-17T02:06:45.119Z,30.54
2022-08-17T02:08:00.182Z,30.54
2022-08-17T02:09:03.874Z,30.55
2022-08-17T02:10:19.813Z,30.53
2022-08-17T02:11:22.097Z,30.56
2022-08-17T02:12:38.057Z,30.58
2022-08-17T02:13:49.472Z,30.58
2022-08-17T02:14:59.629Z,30.58
2022-08-17T02:16:01.351Z,30.52
2022-08-17T02:17:02.992Z,30.53
2022-08-17T02:18:06.210Z,30.55
2022-08-17T02:19:11.780Z,30.55
2022-08-17T02:20:13.584Z,30.55
2022-08-17T02:21:15.193Z,30.53
2022-08-17T02:22:18.380Z,30.54
2022-08-17T02:23:23.300Z,30.50
2022-08-17T02:25:00.551Z,30.49
2022-08-17T02:25:50.994Z,30.49
2022-08-17T02:26:52.611Z,30.48
2022-08-17T02:27:54.246Z,30.48
2022-08-17T02:28:55.860Z,30.48
2022-08-17T02:29:57.819Z,30.48
2022-08-17T02:31:06.043Z,30.49
2022-08-17T02:32:20.893Z,30.46
2022-08-17T02:33:42.228Z,30.52
2022-08-17T02:34:45.220Z,30.50
2022-08-17T02:35:47.325Z,30.51
2022-08-17T02:36:48.967Z,30.51
2022-08-17T02:37:55.414Z,30.45
2022-08-17T02:38:58.639Z,30.41
2022-08-17T02:40:00.457Z,30.39
2022-08-17T02:41:02.258Z,30.39
2022-08-17T02:42:04.433Z,30.40
2022-08-17T02:43:10.031Z,30.37
2022-08-17T02:44:12.168Z,30.34
2022-08-17T02:45:17.167Z,30.36
2022-08-17T02:46:19.550Z,30.39
2022-08-17T02:47:21.118Z,30.39
2022-08-17T02:48:30.685Z,30.36
2022-08-17T02:49:32.922Z,30.39
2022-08-17T02:50:34.668Z,30.37
2022-08-17T02:51:36.355Z,30.37
2022-08-17T02:53:01.365Z,30.37
2022-08-17T02:54:35.587Z,30.34
2022-08-17T02:55:29.558Z,30.32
2022-08-17T02:56:31.404Z,30.32
2022-08-17T02:57:33.158Z,30.29
2022-08-17T02:58:36.089Z,30.27
2022-08-17T02:59:39.326Z,30.26
2022-08-17T03:00:46.182Z,30.21
2022-08-17T03:01:47.859Z,30.25
2022-08-17T03:02:50.310Z,30.24
2022-08-17T03:03:52.090Z,30.23
2022-08-17T03:04:54.165Z,30.24
2022-08-17T03:05:55.747Z,30.22
2022-08-17T03:06:57.329Z,30.22
2022-08-17T03:07:59.517Z,30.23
2022-08-17T03:09:01.075Z,30.24
2022-08-17T03:10:02.687Z,30.22
2022-08-17T03:11:04.536Z,30.19
2022-08-17T03:12:09.471Z,30.21
2022-08-17T03:13:14.378Z,30.23
2022-08-17T03:14:15.960Z,30.23
2022-08-17T03:15:26.823Z,30.21
2022-08-17T03:16:28.535Z,30.23
2022-08-17T03:17:30.215Z,30.26
2022-08-17T03:18:32.846Z,30.24
2022-08-17T03:19:34.428Z,30.19
2022-08-17T03:20:39.307Z,30.20
2022-08-17T03:21:40.908Z,30.19
2022-08-17T03:22:48.086Z,30.18
2022-08-17T03:23:55.250Z,30.17
2022-08-17T03:24:56.930Z,30.12
2022-08-17T03:25:59.965Z,30.13
2022-08-17T03:27:01.530Z,30.17
2022-08-17T03:28:04.913Z,30.17
2022-08-17T03:29:06.537Z,30.18
2022-08-17T03:30:10.663Z,30.18
2022-08-17T03:31:12.273Z,30.21
2022-08-17T03:32:16.281Z,30.21
2022-08-17T03:33:19.067Z,30.23
2022-08-17T03:34:20.734Z,30.21
2022-08-17T03:35:25.786Z,30.17
2022-08-17T03:36:27.396Z,30.21
2022-08-17T03:37:29.012Z,30.21
2022-08-17T03:38:38.897Z,30.22
2022-08-17T03:39:41.228Z,30.22
2022-08-17T03:40:56.705Z,30.23
2022-08-17T03:42:32.583Z,30.22
2022-08-17T03:43:34.842Z,30.30
2022-08-17T03:44:36.508Z,30.29
2022-08-17T03:45:57.563Z,30.25
2022-08-17T03:47:17.614Z,30.28
2022-08-17T03:48:37.643Z,30.25
2022-08-17T03:49:57.438Z,30.24
2022-08-17T03:51:18.186Z,30.25
2022-08-17T03:52:38.259Z,30.23
2022-08-17T03:54:09.961Z,30.23
2022-08-17T03:55:35.826Z,30.30
2022-08-17T03:56:43.854Z,30.34
2022-08-17T03:57:45.894Z,30.35
2022-08-17T03:58:48.464Z,30.34
2022-08-17T03:59:50.470Z,30.30
2022-08-17T04:00:52.517Z,30.31
2022-08-17T04:01:56.837Z,30.29
2022-08-17T04:02:58.400Z,30.32
2022-08-17T04:04:00.021Z,30.36
2022-08-17T04:05:01.772Z,30.43
2022-08-17T04:06:03.513Z,30.45
2022-08-17T04:07:06.572Z,30.45
2022-08-17T04:08:09.095Z,30.48
2022-08-17T04:09:11.352Z,30.50
2022-08-17T04:10:14.090Z,30.56
2022-08-17T04:11:15.658Z,30.65
2022-08-17T04:12:20.197Z,30.82
2022-08-17T04:13:24.746Z,31.01
2022-08-17T04:14:27.193Z,31.14
2022-08-17T04:15:30.124Z,31.38
2022-08-17T04:16:33.195Z,31.74
2022-08-17T04:17:34.825Z,32.11
2022-08-17T04:18:36.388Z,32.53
2022-08-17T04:19:38.011Z,32.96
2022-08-17T04:20:39.635Z,33.38
2022-08-17T04:21:41.367Z,33.79
2022-08-17T04:23:02.505Z,34.27
2022-08-17T04:24:06.042Z,34.68
2022-08-17T04:25:27.426Z,35.10
2022-08-17T04:26:54.082Z,35.46
2022-08-17T04:27:51.419Z,35.84
2022-08-17T04:28:53.009Z,36.10
2022-08-17T04:29:55.947Z,36.35
2022-08-17T04:30:58.573Z,36.63
2022-08-17T04:32:02.847Z,36.86
2022-08-17T04:33:08.656Z,37.06
2022-08-17T04:34:10.349Z,37.24
2022-08-17T04:35:11.988Z,37.50
2022-08-17T04:36:15.459Z,37.74
2022-08-17T04:37:17.037Z,37.90
2022-08-17T04:38:25.663Z,38.10
2022-08-17T04:39:28.997Z,38.31
2022-08-17T04:40:49.521Z,38.48
2022-08-17T04:42:17.234Z,38.76
2022-08-17T04:43:21.767Z,39.07
2022-08-17T04:44:36.950Z,39.27
2022-08-17T04:45:55.458Z,39.49
2022-08-17T04:46:58.352Z,39.67
2022-08-17T04:48:01.104Z,39.78
2022-08-17T04:49:07.829Z,39.82
2022-08-17T04:50:09.809Z,39.95
2022-08-17T04:51:16.386Z,40.08
2022-08-17T04:52:32.249Z,40.25
2022-08-17T04:53:41.945Z,40.33
2022-08-17T04:54:43.549Z,40.39
2022-08-17T04:55:45.307Z,40.47
2022-08-17T04:56:47.705Z,40.58
2022-08-17T04:57:49.310Z,40.70
2022-08-17T04:58:52.594Z,40.79
2022-08-17T04:59:54.140Z,40.86
2022-08-17T05:00:55.709Z,40.94
2022-08-17T05:01:57.400Z,40.98
2022-08-17T05:02:59.101Z,40.97
2022-08-17T05:04:32.894Z,40.92
2022-08-17T05:05:38.938Z,41.10
2022-08-17T05:06:40.551Z,41.13
2022-08-17T05:07:42.837Z,41.15
2022-08-17T05:08:44.412Z,41.24
2022-08-17T05:09:46.230Z,41.05
2022-08-17T05:10:48.781Z,41.08
2022-08-17T05:11:50.393Z,41.00
2022-08-17T05:12:59.242Z,40.94
2022-08-17T05:14:00.869Z,40.93
2022-08-17T05:15:02.476Z,40.91
2022-08-17T05:16:04.848Z,40.56
2022-08-17T05:17:09.425Z,40.52
2022-08-17T05:18:13.202Z,40.56
2022-08-17T05:19:14.800Z,40.55
2022-08-17T05:20:16.480Z,40.54
2022-08-17T05:21:19.386Z,40.52
2022-08-17T05:22:21.123Z,40.55
2022-08-17T05:23:24.954Z,40.48
2022-08-17T05:24:39.863Z,40.44
2022-08-17T05:25:48.466Z,40.26
2022-08-17T05:26:51.921Z,40.10
2022-08-17T05:27:54.938Z,40.19
2022-08-17T05:29:00.578Z,40.22
2022-08-17T05:30:04.777Z,40.24
2022-08-17T05:31:06.859Z,40.15
2022-08-17T05:32:38.839Z,40.05
2022-08-17T05:33:40.419Z,39.84
2022-08-17T05:34:44.217Z,39.51
2022-08-17T05:35:48.958Z,39.39
2022-08-17T05:36:50.547Z,39.35
2022-08-17T05:37:53.262Z,39.06
2022-08-17T05:38:58.736Z,38.86
2022-08-17T05:40:00.464Z,38.54
2022-08-17T05:41:05.650Z,37.69
2022-08-17T05:42:07.252Z,37.16
2022-08-17T05:43:12.586Z,37.11
2022-08-17T05:44:14.874Z,37.18
2022-08-17T05:45:46.089Z,37.29
2022-08-17T05:46:44.048Z,37.37
2022-08-17T05:47:47.345Z,37.39
2022-08-17T05:48:54.007Z,37.36
2022-08-17T05:49:56.010Z,37.31
2022-08-17T05:51:01.626Z,37.18
2022-08-17T05:52:12.644Z,37.05
2022-08-17T05:53:22.767Z,36.83
2022-08-17T05:54:49.365Z,36.69
2022-08-17T05:55:59.663Z,36.58
2022-08-17T05:57:43.375Z,36.47
2022-08-17T05:59:05.292Z,36.34
2022-08-17T06:00:20.244Z,36.26
2022-08-17T06:01:25.147Z,36.16
2022-08-17T06:02:47.087Z,36.04
2022-08-17T06:04:01.068Z,35.92
2022-08-17T06:05:28.905Z,35.79
2022-08-17T06:06:51.435Z,35.63
2022-08-17T06:08:18.269Z,35.63
2022-08-17T06:09:30.159Z,35.59
2022-08-17T06:10:43.811Z,34.14
2022-08-17T06:11:53.908Z,34.19
2022-08-17T06:13:12.536Z,34.37
2022-08-17T06:14:59.427Z,34.38
2022-08-17T06:16:33.575Z,33.92
2022-08-17T06:17:34.658Z,34.03
2022-08-17T06:18:46.891Z,34.10
2022-08-17T06:20:08.275Z,33.96
2022-08-17T06:21:15.794Z,33.63
2022-08-17T06:22:22.060Z,33.69
2022-08-17T06:23:32.399Z,33.72
2022-08-17T06:24:51.572Z,33.86
2022-08-17T06:25:59.310Z,33.99
2022-08-17T06:27:13.019Z,33.99
2022-08-17T06:28:24.668Z,33.99
2022-08-17T06:29:38.001Z,33.01
2022-08-17T06:31:01.065Z,32.42
2022-08-17T06:32:05.453Z,30.34
2022-08-17T06:33:19.325Z,30.51
2022-08-17T06:34:21.690Z,31.23
2022-08-17T06:35:34.036Z,31.81
2022-08-17T06:37:05.461Z,32.24
2022-08-17T06:38:38.039Z,32.50
2022-08-17T06:39:47.620Z,32.75
2022-08-17T06:41:07.687Z,32.96
2022-08-17T06:42:53.982Z,32.55
2022-08-17T06:44:07.085Z,32.56
2022-08-17T06:45:17.508Z,32.81
2022-08-17T06:46:30.599Z,32.24
2022-08-17T06:47:42.395Z,32.34
2022-08-17T06:49:19.818Z,32.57
2022-08-17T06:50:36.383Z,31.79
2022-08-17T06:51:51.960Z,31.15
2022-08-17T06:53:22.008Z,31.00
2022-08-17T06:54:57.728Z,30.81
2022-08-17T06:56:08.896Z,31.53
2022-08-17T06:57:19.616Z,31.93
2022-08-17T06:58:24.102Z,31.99
2022-08-17T06:59:54.995Z,32.10
2022-08-17T07:01:03.789Z,32.39
2022-08-17T07:02:08.702Z,32.58
2022-08-17T07:03:20.885Z,32.66
2022-08-17T07:04:29.128Z,32.38
2022-08-17T07:05:48.084Z,32.52
2022-08-17T07:06:58.999Z,32.73
2022-08-17T07:08:14.792Z,32.69
2022-08-17T07:09:23.425Z,32.36
2022-08-17T07:10:27.513Z,32.34
2022-08-17T07:11:38.126Z,32.51
2022-08-17T07:12:42.766Z,32.63
2022-08-17T07:14:18.789Z,32.74
2022-08-17T07:15:25.097Z,32.93
2022-08-17T07:16:29.013Z,33.01
2022-08-17T07:17:46.419Z,32.05
2022-08-17T07:18:56.746Z,32.39
2022-08-17T07:20:06.009Z,32.58
2022-08-17T07:21:40.845Z,32.48
2022-08-17T07:23:05.292Z,32.73
2022-08-17T07:24:47.219Z,32.92
2022-08-17T07:25:49.944Z,33.03
2022-08-17T07:27:21.247Z,33.05
2022-08-17T07:28:23.574Z,33.10
2022-08-17T07:29:25.364Z,33.09
2022-08-17T07:30:47.528Z,33.08
2022-08-17T07:31:49.382Z,33.15
2022-08-17T07:32:58.577Z,33.16
2022-08-17T07:34:11.043Z,32.84
2022-08-17T07:35:31.136Z,31.96
2022-08-17T07:36:39.896Z,32.31
2022-08-17T07:37:50.932Z,32.51
2022-08-17T07:38:57.860Z,32.71
2022-08-17T07:40:16.290Z,32.81
2022-08-17T07:41:20.439Z,32.91
2022-08-17T07:42:22.186Z,32.97
2022-08-17T07:43:40.466Z,32.83
2022-08-17T07:45:22.473Z,32.84
2022-08-17T07:46:46.295Z,32.97
2022-08-17T07:48:10.383Z,32.97
2022-08-17T07:49:22.858Z,33.02
2022-08-17T07:50:28.096Z,32.95
2022-08-17T07:51:32.733Z,32.83
2022-08-17T07:52:50.416Z,32.47
2022-08-17T07:54:16.654Z,32.03
2022-08-17T07:55:35.027Z,31.96
2022-08-17T07:56:47.134Z,32.01
2022-08-17T07:57:57.459Z,31.87
2022-08-17T07:59:11.439Z,31.25
2022-08-17T08:00:19.707Z,30.72
2022-08-17T08:01:39.668Z,31.14
2022-08-17T08:02:47.635Z,31.66
2022-08-17T08:03:52.433Z,32.00
2022-08-17T08:05:48.736Z,32.23
2022-08-17T08:06:52.784Z,32.51
2022-08-17T08:08:20.573Z,32.60
2022-08-17T08:10:00.704Z,32.69
2022-08-17T08:11:09.265Z,32.75
2022-08-17T08:12:33.999Z,32.74
2022-08-17T08:13:42.591Z,32.78
2022-08-17T08:14:55.374Z,32.78
2022-08-17T08:16:24.493Z,32.82
2022-08-17T08:17:31.976Z,32.86
2022-08-17T08:18:54.531Z,32.87
2022-08-17T08:20:00.457Z,32.86
2022-08-17T08:21:29.034Z,32.87
2022-08-17T08:22:45.720Z,32.86
2022-08-17T08:24:03.692Z,32.86
2022-08-17T08:25:23.036Z,32.86
2022-08-17T08:26:50.167Z,32.79
2022-08-17T08:28:23.985Z,32.87
2022-08-17T08:29:52.889Z,32.94
2022-08-17T08:31:07.687Z,32.92
2022-08-17T08:32:50.174Z,32.97
2022-08-17T08:33:56.385Z,33.00
2022-08-17T08:35:37.266Z,32.95
2022-08-17T08:37:17.837Z,32.96
2022-08-17T08:38:24.859Z,32.98
2022-08-17T08:39:41.377Z,32.97
2022-08-17T08:41:05.423Z,32.96
2022-08-17T08:42:18.415Z,32.99
2022-08-17T08:43:37.905Z,32.98
2022-08-17T08:45:15.391Z,32.94
2022-08-17T08:46:29.671Z,32.94
2022-08-17T08:47:49.782Z,33.03
2022-08-17T08:49:29.822Z,33.01
2022-08-17T08:51:10.979Z,33.03
2022-08-17T08:52:16.977Z,33.04
2022-08-17T08:53:37.030Z,33.06
2022-08-17T08:54:53.805Z,33.00
2022-08-17T08:56:04.562Z,32.99
2022-08-17T08:57:26.432Z,33.03
2022-08-17T08:58:50.574Z,33.01
2022-08-17T09:00:16.215Z,33.03
2022-08-17T09:01:59.853Z,33.07
2022-08-17T09:03:31.749Z,33.12
2022-08-17T09:05:22.801Z,33.09
2022-08-17T09:06:44.436Z,33.16
2022-08-17T09:08:05.517Z,33.17
2022-08-17T09:09:19.534Z,33.12
2022-08-17T09:10:30.898Z,33.15
2022-08-17T09:12:01.363Z,33.08
2022-08-17T09:13:31.839Z,33.15
2022-08-17T09:14:56.870Z,33.21
2022-08-17T09:16:09.750Z,33.24
2022-08-17T09:17:14.104Z,33.22
2022-08-17T09:19:00.247Z,33.20
2022-08-17T09:19:55.522Z,33.23
2022-08-17T09:21:05.980Z,33.24
2022-08-17T09:22:17.504Z,33.24
2022-08-17T09:23:42.178Z,33.26
2022-08-17T09:24:57.328Z,32.84
2022-08-17T09:26:10.145Z,32.96
2022-08-17T09:27:16.321Z,33.07
2022-08-17T09:28:24.148Z,33.13
2022-08-17T09:29:29.816Z,33.18
2022-08-17T09:30:53.494Z,33.15
2022-08-17T09:32:17.554Z,33.22
2022-08-17T09:33:23.169Z,33.16
2022-08-17T09:34:43.650Z,33.10
2022-08-17T09:36:07.747Z,33.16
2022-08-17T09:37:33.725Z,33.07
2022-08-17T09:38:54.103Z,33.18
2022-08-17T09:40:15.847Z,33.20
2022-08-17T09:41:28.723Z,33.24
2022-08-17T09:42:37.848Z,33.27
2022-08-17T09:43:50.766Z,33.26
2022-08-17T09:44:57.960Z,33.28
2022-08-17T09:46:08.985Z,33.28
2022-08-17T09:47:17.834Z,33.29
2022-08-17T09:48:44.064Z,33.27
2022-08-17T09:49:51.131Z,33.32
2022-08-17T09:51:05.496Z,33.32
2022-08-17T09:52:17.896Z,33.04
2022-08-17T09:53:19.865Z,33.15
2022-08-17T09:54:45.076Z,33.14
2022-08-17T09:56:24.016Z,33.16
2022-08-17T09:58:11.252Z,33.23
2022-08-17T09:59:40.279Z,33.33
2022-08-17T10:00:54.545Z,33.36
2022-08-17T10:02:01.891Z,33.42
2022-08-17T10:03:28.237Z,33.38
2022-08-17T10:04:41.644Z,33.39
2022-08-17T10:06:06.500Z,33.40
2022-08-17T10:07:17.643Z,33.38
2022-08-17T10:08:36.660Z,33.37
2022-08-17T10:10:14.331Z,33.38
2022-08-17T10:11:57.496Z,33.41
2022-08-17T10:13:37.934Z,33.41
2022-08-17T10:15:08.209Z,33.44
2022-08-17T10:16:26.378Z,33.46
2022-08-17T10:18:01.218Z,33.43
2022-08-17T10:19:14.270Z,33.50
2022-08-17T10:20:41.848Z,33.51
2022-08-17T10:22:14.770Z,33.50
2022-08-17T10:23:48.931Z,33.52
2022-08-17T10:25:23.660Z,33.53
2022-08-17T10:26:46.332Z,33.54
2022-08-17T10:27:57.809Z,33.59
2022-08-17T10:29:11.246Z,33.54
2022-08-17T10:30:17.814Z,33.54
2022-08-17T10:31:42.614Z,33.49
2022-08-17T10:32:57.348Z,33.51
2022-08-17T10:34:41.258Z,33.55
2022-08-17T10:36:11.178Z,33.56
2022-08-17T10:37:31.097Z,33.65
2022-08-17T10:39:01.640Z,33.56
2022-08-17T10:40:23.646Z,33.60
2022-08-17T10:41:42.085Z,33.64
2022-08-17T10:43:10.205Z,33.67
2022-08-17T10:44:38.454Z,33.71
2022-08-17T10:46:10.487Z,33.72
2022-08-17T10:47:27.018Z,33.75
2022-08-17T10:48:36.773Z,33.71
2022-08-17T10:49:47.480Z,33.73
2022-08-17T10:51:03.684Z,33.63
2022-08-17T10:52:20.421Z,33.70
2022-08-17T10:53:40.718Z,33.74
2022-08-17T10:54:47.270Z,33.76
2022-08-17T10:56:13.591Z,33.76
2022-08-17T10:57:27.367Z,33.73
2022-08-17T10:58:45.327Z,33.78
2022-08-17T10:59:50.763Z,33.84
2022-08-17T11:00:52.453Z,33.90
2022-08-17T11:02:14.325Z,33.93
2022-08-17T11:03:21.239Z,33.95
2022-08-17T11:04:32.635Z,33.97
2022-08-17T11:05:50.326Z,34.00
2022-08-17T11:07:02.314Z,33.99
2022-08-17T11:08:10.718Z,34.03
2022-08-17T11:09:19.958Z,34.04
2022-08-17T11:10:27.350Z,34.04
2022-08-17T11:12:01.544Z,33.99
2022-08-17T11:13:12.038Z,34.00
2022-08-17T11:14:34.989Z,34.00
2022-08-17T11:15:58.748Z,34.12
2022-08-17T11:17:06.765Z,34.14
2022-08-17T11:18:50.794Z,34.16
2022-08-17T11:20:07.029Z,34.16
2022-08-17T11:21:51.997Z,34.14
2022-08-17T11:22:59.849Z,34.19
2022-08-17T11:24:17.840Z,34.18
2022-08-17T11:25:31.503Z,34.23
2022-08-17T11:26:36.799Z,34.26
2022-08-17T11:27:38.751Z,34.30
2022-08-17T11:28:52.808Z,34.27
2022-08-17T11:30:02.878Z,34.24
2022-08-17T11:31:38.872Z,34.28
2022-08-17T11:32:47.739Z,34.29
2022-08-17T11:34:02.138Z,34.32
2022-08-17T11:35:22.038Z,34.32
2022-08-17T11:36:38.968Z,34.38
2022-08-17T11:37:40.700Z,34.44
2022-08-17T11:39:15.394Z,34.41
2022-08-17T11:40:38.594Z,34.45
2022-08-17T11:41:59.224Z,34.50
2022-08-17T11:43:30.318Z,34.53
2022-08-17T11:44:56.132Z,34.57
2022-08-17T11:46:19.094Z,34.62
2022-08-17T11:48:25.869Z,34.63
2022-08-17T11:49:53.212Z,34.58
2022-08-17T11:51:24.206Z,34.66
2022-08-17T11:52:48.030Z,34.64
2022-08-17T11:53:49.766Z,34.47
2022-08-17T11:54:51.393Z,34.53
2022-08-17T11:55:52.927Z,34.20
2022-08-17T11:56:54.506Z,34.26
2022-08-17T11:58:01.823Z,34.33
2022-08-17T11:59:45.998Z,34.33
2022-08-17T12:00:49.560Z,34.45
2022-08-17T12:01:56.700Z,34.38
2022-08-17T12:03:33.564Z,34.29
2022-08-17T12:04:35.976Z,34.35
2022-08-17T12:05:37.658Z,34.32
2022-08-17T12:06:45.449Z,34.26
2022-08-17T12:08:00.902Z,34.30
2022-08-17T12:09:19.276Z,34.29
2022-08-17T12:10:31.723Z,34.24
2022-08-17T12:11:58.731Z,34.17
2022-08-17T12:13:10.887Z,34.21
2022-08-17T12:14:27.005Z,34.09
2022-08-17T12:15:48.773Z,34.19
2022-08-17T12:17:25.902Z,34.04
2022-08-17T12:18:39.489Z,34.14
2022-08-17T12:19:43.109Z,34.00
2022-08-17T12:20:56.104Z,33.60
2022-08-17T12:22:07.178Z,33.16
2022-08-17T12:23:08.708Z,33.17
2022-08-17T12:24:54.588Z,33.31
2022-08-17T12:26:11.805Z,33.45
2022-08-17T12:27:46.241Z,33.60
2022-08-17T12:28:50.010Z,33.45
2022-08-17T12:29:53.677Z,33.48
2022-08-17T12:31:02.818Z,33.52
2022-08-17T12:32:07.067Z,33.46
2022-08-17T12:33:13.694Z,33.54
2022-08-17T12:34:37.014Z,33.64
2022-08-17T12:35:39.060Z,33.77
2022-08-17T12:36:41.413Z,33.82
2022-08-17T12:37:47.125Z,33.87
2022-08-17T12:38:56.451Z,33.88
2022-08-17T12:40:17.447Z,33.95
2022-08-17T12:41:40.856Z,33.53
2022-08-17T12:43:00.908Z,33.64
2022-08-17T12:44:12.256Z,33.84
2022-08-17T12:45:27.376Z,33.91
2022-08-17T12:46:33.733Z,33.58
2022-08-17T12:47:37.658Z,33.72
2022-08-17T12:48:39.590Z,33.81
2022-08-17T12:50:28.558Z,33.84
2022-08-17T12:51:31.793Z,33.94
2022-08-17T12:52:37.461Z,33.95
2022-08-17T12:53:40.863Z,33.98
2022-08-17T12:55:06.925Z,34.02
2022-08-17T12:56:13.336Z,34.08
2022-08-17T12:57:22.876Z,34.04
2022-08-17T12:58:29.887Z,34.04
2022-08-17T12:59:33.130Z,33.94
2022-08-17T13:00:47.550Z,33.84
2022-08-17T13:01:50.864Z,33.88
2022-08-17T13:03:03.342Z,33.89
2022-08-17T13:04:06.049Z,33.86
2022-08-17T13:05:27.634Z,33.86
2022-08-17T13:06:33.321Z,33.33
2022-08-17T13:07:44.820Z,33.49
2022-08-17T13:08:48.129Z,33.67
2022-08-17T13:09:52.771Z,33.77
2022-08-17T13:11:11.682Z,33.80
2022-08-17T13:12:13.250Z,33.83
2022-08-17T13:13:24.225Z,33.78
2022-08-17T13:14:26.367Z,33.80
2022-08-17T13:15:33.123Z,33.79
2022-08-17T13:16:35.089Z,33.83
2022-08-17T13:17:36.901Z,33.85
2022-08-17T13:18:41.525Z,33.79
2022-08-17T13:19:49.609Z,33.40
2022-08-17T13:20:55.451Z,33.56
2022-08-17T13:21:59.538Z,33.67
2022-08-17T13:23:11.465Z,33.72
2022-08-17T13:24:23.178Z,33.74
2022-08-17T13:25:26.692Z,33.81
2022-08-17T13:26:32.550Z,33.81
2022-08-17T13:27:34.243Z,33.86
2022-08-17T13:28:37.517Z,33.91
2022-08-17T13:29:51.313Z,33.91
2022-08-17T13:31:21.315Z,33.91
2022-08-17T13:32:50.752Z,33.95
2022-08-17T13:33:52.486Z,33.95
2022-08-17T13:35:12.622Z,33.92
2022-08-17T13:36:33.654Z,33.97
2022-08-17T13:37:36.708Z,34.03
2022-08-17T13:38:49.562Z,33.81
2022-08-17T13:39:52.844Z,33.90
2022-08-17T13:40:54.449Z,33.93
2022-08-17T13:41:56.169Z,33.96
2022-08-17T13:42:58.611Z,33.97
2022-08-17T13:44:00.592Z,33.97
2022-08-17T13:45:02.241Z,33.96
2022-08-17T13:46:31.297Z,34.00
2022-08-17T13:47:33.260Z,33.98
2022-08-17T13:48:34.990Z,34.00
2022-08-17T13:49:41.037Z,33.30
2022-08-17T13:50:56.149Z,33.51
2022-08-17T13:51:57.840Z,33.68
2022-08-17T13:52:59.794Z,33.81
2022-08-17T13:54:04.003Z,33.86
2022-08-17T13:55:19.954Z,33.86
2022-08-17T13:56:39.151Z,33.88
2022-08-17T13:57:46.910Z,33.93
2022-08-17T13:58:56.210Z,33.92
2022-08-17T14:00:12.226Z,33.93
2022-08-17T14:01:39.169Z,33.93
2022-08-17T14:02:41.118Z,33.86
2022-08-17T14:03:42.703Z,33.64
2022-08-17T14:04:47.547Z,33.12
2022-08-17T14:05:50.718Z,33.19
2022-08-17T14:07:01.247Z,32.96
2022-08-17T14:08:06.530Z,32.53
2022-08-17T14:09:09.000Z,32.90
2022-08-17T14:10:14.886Z,33.15
2022-08-17T14:11:17.656Z,33.35
2022-08-17T14:12:23.464Z,33.49
2022-08-17T14:13:25.072Z,33.56
2022-08-17T14:14:27.412Z,33.61
2022-08-17T14:15:55.601Z,33.67
2022-08-17T14:16:52.400Z,33.59
2022-08-17T14:17:54.223Z,33.62
2022-08-17T14:18:57.541Z,33.57
2022-08-17T14:19:59.582Z,33.13
2022-08-17T14:21:01.151Z,33.32
2022-08-17T14:22:03.295Z,33.45
2022-08-17T14:23:04.963Z,33.54
2022-08-17T14:24:11.195Z,33.57
2022-08-17T14:25:15.264Z,33.66
2022-08-17T14:26:17.322Z,33.05
2022-08-17T14:27:19.448Z,33.27
2022-08-17T14:28:21.104Z,33.42
2022-08-17T14:29:24.863Z,33.49
2022-08-17T14:30:29.053Z,33.12
2022-08-17T14:31:36.812Z,33.24
2022-08-17T14:32:41.416Z,33.39
2022-08-17T14:33:42.987Z,33.28
2022-08-17T14:34:46.076Z,33.31
2022-08-17T14:35:47.698Z,33.30
2022-08-17T14:36:49.351Z,33.43
2022-08-17T14:37:52.376Z,33.51
2022-08-17T14:38:54.207Z,33.59
2022-08-17T14:40:02.175Z,33.58
2022-08-17T14:41:04.911Z,33.34
2022-08-17T14:42:06.654Z,33.30
2022-08-17T14:43:08.658Z,33.26
2022-08-17T14:44:12.968Z,33.32
2022-08-17T14:45:31.596Z,33.38
2022-08-17T14:46:34.039Z,33.53
2022-08-17T14:47:37.661Z,33.62
2022-08-17T14:48:40.624Z,33.66
2022-08-17T14:49:42.465Z,33.67
2022-08-17T14:50:44.590Z,33.67
2022-08-17T14:51:46.994Z,33.70
2022-08-17T14:52:49.473Z,33.67
2022-08-17T14:53:51.070Z,33.65
2022-08-17T14:54:53.614Z,33.61
2022-08-17T14:55:55.201Z,33.62
2022-08-17T14:57:22.807Z,33.65
2022-08-17T14:58:19.903Z,33.66
2022-08-17T14:59:22.205Z,33.67
2022-08-17T15:00:23.806Z,33.65
2022-08-17T15:01:26.992Z,33.65
2022-08-17T15:02:29.901Z,33.69
2022-08-17T15:03:32.194Z,33.70
2022-08-17T15:04:33.889Z,33.69
2022-08-17T15:05:37.097Z,33.68
2022-08-17T15:06:38.848Z,33.69
2022-08-17T15:07:40.569Z,33.70
2022-08-17T15:08:42.875Z,33.72
2022-08-17T15:09:45.998Z,33.72
2022-08-17T15:10:52.539Z,33.74
2022-08-17T15:11:56.700Z,33.73
2022-08-17T15:12:58.511Z,33.73
2022-08-17T15:14:00.102Z,33.76
2022-08-17T15:15:05.188Z,33.75
2022-08-17T15:16:08.622Z,33.67